Concrete, WA (98237)

8:32 PM PDT on April 29, 2017 (GMT -0700)
Challenger Ridge | | Change Station

Elev 335 ft 48.54 °N, 121.80 °W | Updated 2 seconds ago

Overcast
Overcast
45.1 °F
Feels Like 45 °F
N
0.0
Wind Variable Wind from ENE

Today
High -- | Low -- °F
--% Chance of Precip.
Yesterday
High -- | Low -- °F
Precip. -- in
Pressure 30.13 in
Visibility 10.0 miles
Clouds Few 1500 ft
Mostly Cloudy 2600 ft
Overcast 3100 ft
Windchill 45 °F
Dew Point 45 °F
Humidity 99%
Rainfall 0.13 in
Snow Depth Not available.
5:50 AM 8:19 PM
Waxing Crescent, 19% visible
METAR KAWO 300315Z AUTO 17005KT 10SM FEW015 BKN026 OVC031 09/03 A3013 RMK AO1
Pressure 30.13 in
Visibility 10.0 miles
Clouds Few 1500 ft
Mostly Cloudy 2600 ft
Overcast 3100 ft
Windchill 45 °F
Dew Point 45 °F
Humidity 99%
Rainfall 0.13 in
Snow Depth Not available.
5:50 AM 8:19 PM
Waxing Crescent, 19% visible
METAR KAWO 300315Z AUTO 17005KT 10SM FEW015 BKN026 OVC031 09/03 A3013 RMK AO1

Get Severe Weather Alerts

Thanks for signing up!

Be on the lookout for a verification email in your inbox.

You'll start receiving the daily forecast at 8 AM.

×

10-Day Weather Forecast

Almanac

Astronomy

Apr. 29, 2017 Rise Set
Actual Time
Civil Twilight
Nautical Twilight
Astronomical Twilight
Moon
Length of Visible Light
Length of Day
Tomorrow will be .
, % of the Moon is Illuminated

Today's Extremes

State Highs State Lows

Community

WunderPhotos

WunderBlog® & News

Nearby

Air Quality

  Air Quality AQ Index Pollutant
Not available.

Snow Depth

Station Depth Elevation

Earthquake Activity

City Distance Mag. Time & Date
Minimum magnitude displayed is 2.5.

Coastal Water Temperatures

Place Temperature

Stations

Nearby Weather Stations

Station Location Temp. Windchill Dew Point Humidity Wind Precip. Elev Updated Type
                   

Watches & Warnings

There are currently no watches in effect.